createdAt,value
2019-03-31T00:00:48.305Z,7.84
2019-03-31T00:03:20.219Z,7.84
2019-03-31T00:05:52.598Z,7.76
2019-03-31T00:08:23.669Z,7.72
2019-03-31T00:10:54.692Z,7.71
2019-03-31T00:13:25.865Z,7.68
2019-03-31T00:15:56.819Z,7.70
2019-03-31T00:18:27.943Z,7.76
2019-03-31T00:20:59.023Z,7.67
2019-03-31T00:23:30.086Z,7.72
2019-03-31T00:26:01.033Z,7.64
2019-03-31T00:28:32.069Z,7.61
2019-03-31T00:31:03.051Z,7.61
2019-03-31T00:33:33.951Z,7.62
2019-03-31T00:36:04.934Z,7.62
2019-03-31T00:38:35.908Z,7.61
2019-03-31T00:41:06.808Z,7.58
2019-03-31T00:43:37.922Z,7.52
2019-03-31T00:46:08.885Z,7.49
2019-03-31T00:48:39.987Z,7.39
2019-03-31T00:51:11.107Z,7.47
2019-03-31T00:53:42.093Z,7.36
2019-03-31T00:56:13.291Z,7.34
2019-03-31T00:58:44.256Z,7.25
2019-03-31T01:01:37.207Z,7.17
2019-03-31T01:04:08.808Z,7.18
2019-03-31T01:06:40.311Z,7.06
2019-03-31T01:09:27.629Z,7.02
2019-03-31T01:11:58.967Z,6.99
2019-03-31T01:14:30.550Z,6.91
2019-03-31T01:17:01.967Z,6.90
2019-03-31T01:19:33.598Z,6.81
2019-03-31T01:22:04.721Z,6.74
2019-03-31T01:24:35.698Z,6.71
2019-03-31T01:27:09.782Z,6.66
2019-03-31T01:29:41.267Z,6.66
2019-03-31T01:32:12.429Z,6.68
2019-03-31T01:34:43.424Z,6.57
2019-03-31T01:37:14.416Z,6.53
2019-03-31T01:39:45.611Z,6.50
2019-03-31T01:42:16.558Z,6.47
2019-03-31T01:44:47.469Z,6.54
2019-03-31T01:47:18.535Z,6.52
2019-03-31T01:49:49.448Z,6.45
2019-03-31T01:52:20.445Z,6.43
2019-03-31T01:54:51.409Z,6.41
2019-03-31T01:57:22.344Z,6.35
2019-03-31T01:59:53.441Z,6.26
2019-03-31T02:02:28.916Z,6.28
2019-03-31T02:04:59.898Z,6.26
2019-03-31T02:07:31.028Z,6.25
2019-03-31T02:10:02.055Z,6.26
2019-03-31T02:12:34.262Z,6.21
2019-03-31T02:15:06.158Z,6.16
2019-03-31T02:17:37.272Z,6.16
2019-03-31T02:20:08.358Z,5.39
2019-03-31T02:22:39.517Z,6.17
2019-03-31T02:25:10.409Z,6.13
2019-03-31T02:27:41.377Z,5.99
2019-03-31T02:30:12.890Z,5.95
2019-03-31T02:32:43.889Z,5.89
2019-03-31T02:35:15.005Z,5.89
2019-03-31T02:37:46.064Z,5.90
2019-03-31T02:40:17.032Z,5.82
2019-03-31T02:42:47.998Z,5.74
2019-03-31T02:45:19.066Z,5.72
2019-03-31T02:47:50.284Z,5.74
2019-03-31T02:50:50.486Z,5.64
2019-03-31T02:53:21.851Z,5.72
2019-03-31T02:55:53.831Z,5.58
2019-03-31T02:58:25.521Z,5.56
2019-03-31T03:00:56.831Z,5.55
2019-03-31T03:03:28.186Z,5.56
2019-03-31T03:06:01.476Z,5.56
2019-03-31T03:08:34.285Z,5.50
2019-03-31T03:11:06.151Z,5.53
2019-03-31T03:13:38.998Z,5.44
2019-03-31T03:16:20.592Z,5.44
2019-03-31T03:18:52.028Z,5.51
2019-03-31T03:21:24.657Z,5.47
2019-03-31T03:23:55.781Z,5.44
2019-03-31T03:26:26.737Z,5.44
2019-03-31T03:28:57.751Z,5.39
2019-03-31T03:31:28.974Z,5.36
2019-03-31T03:34:00.351Z,5.37
2019-03-31T03:36:31.346Z,5.31
2019-03-31T03:39:02.462Z,5.31
2019-03-31T03:41:33.458Z,5.32
2019-03-31T03:44:04.507Z,5.27
2019-03-31T03:46:35.503Z,5.25
2019-03-31T03:49:06.627Z,5.26
2019-03-31T03:51:37.567Z,5.23
2019-03-31T03:54:09.797Z,5.20
2019-03-31T03:56:41.048Z,5.17
2019-03-31T03:59:12.025Z,5.12
2019-03-31T04:01:42.992Z,5.08
2019-03-31T04:04:13.951Z,5.07
2019-03-31T04:06:45.043Z,5.09
2019-03-31T04:09:16.051Z,5.09
2019-03-31T04:11:47.048Z,5.10
2019-03-31T04:14:18.074Z,5.11
2019-03-31T04:16:49.189Z,5.17
2019-03-31T04:19:20.143Z,5.18
2019-03-31T04:21:51.061Z,5.14
2019-03-31T04:24:22.102Z,5.15
2019-03-31T04:26:53.055Z,5.08
2019-03-31T04:29:24.000Z,5.07
2019-03-31T04:31:54.873Z,5.07
2019-03-31T04:34:25.746Z,5.10
2019-03-31T04:36:56.755Z,5.07
2019-03-31T04:39:27.701Z,5.10
2019-03-31T04:41:58.610Z,5.14
2019-03-31T04:44:29.573Z,5.12
2019-03-31T04:47:00.652Z,5.09
2019-03-31T04:49:31.448Z,5.04
2019-03-31T04:52:03.244Z,5.00
2019-03-31T04:54:34.247Z,5.00
2019-03-31T04:57:05.209Z,5.07
2019-03-31T04:59:36.181Z,5.14
2019-03-31T05:02:07.171Z,5.22
2019-03-31T05:04:39.368Z,5.33
2019-03-31T05:07:10.378Z,5.44
2019-03-31T05:09:41.349Z,5.50
2019-03-31T05:12:12.336Z,5.64
2019-03-31T05:14:43.256Z,5.80
2019-03-31T05:17:14.233Z,5.85
2019-03-31T05:19:45.278Z,5.91
2019-03-31T05:22:16.182Z,6.04
2019-03-31T05:24:47.216Z,6.14
2019-03-31T05:27:18.230Z,6.28
2019-03-31T05:29:49.135Z,6.31
2019-03-31T05:32:20.043Z,6.45
2019-03-31T05:34:51.001Z,6.59
2019-03-31T05:37:21.924Z,6.74
2019-03-31T05:39:56.556Z,6.96
2019-03-31T05:42:28.846Z,7.03
2019-03-31T05:44:59.773Z,7.13
2019-03-31T05:47:30.868Z,7.26
2019-03-31T05:50:01.852Z,7.38
2019-03-31T05:52:32.829Z,7.48
2019-03-31T05:55:03.699Z,7.55
2019-03-31T05:57:34.751Z,7.68
2019-03-31T06:00:06.692Z,7.71
2019-03-31T06:02:37.632Z,7.85
2019-03-31T06:05:08.573Z,7.77
2019-03-31T06:07:39.583Z,7.87
2019-03-31T06:10:10.657Z,7.85
2019-03-31T06:12:42.813Z,7.96
2019-03-31T06:15:13.876Z,8.09
2019-03-31T06:17:45.056Z,8.06
2019-03-31T06:20:15.983Z,8.24
2019-03-31T06:22:46.942Z,8.23
2019-03-31T06:25:18.030Z,8.43
2019-03-31T06:27:49.947Z,8.45
2019-03-31T06:30:20.929Z,8.34
2019-03-31T06:32:55.335Z,8.35
2019-03-31T06:35:25.671Z,8.67
2019-03-31T06:37:56.646Z,8.65
2019-03-31T06:40:27.605Z,8.84
2019-03-31T06:42:58.961Z,8.87
2019-03-31T06:45:29.942Z,8.81
2019-03-31T06:48:01.001Z,8.59
2019-03-31T06:50:31.947Z,8.46
2019-03-31T06:53:03.131Z,8.34
2019-03-31T06:55:34.170Z,7.89
2019-03-31T06:58:05.173Z,7.91
2019-03-31T07:00:36.186Z,7.72
2019-03-31T07:03:07.242Z,7.50
2019-03-31T07:05:38.578Z,7.40
2019-03-31T07:08:09.708Z,7.28
2019-03-31T07:10:40.733Z,7.13
2019-03-31T07:13:11.718Z,6.81
2019-03-31T07:15:42.811Z,6.62
2019-03-31T07:18:15.974Z,6.30
2019-03-31T07:20:46.412Z,6.08
2019-03-31T07:23:17.574Z,6.02
2019-03-31T07:25:48.498Z,5.86
2019-03-31T07:28:19.467Z,5.81
2019-03-31T07:30:50.600Z,5.55
2019-03-31T07:33:21.632Z,5.53
2019-03-31T07:35:53.735Z,5.19
2019-03-31T07:38:38.014Z,5.26
2019-03-31T07:41:11.680Z,4.99
2019-03-31T07:43:30.273Z,4.54
2019-03-31T07:46:01.300Z,4.40
2019-03-31T07:48:32.259Z,4.33
2019-03-31T07:51:03.671Z,4.23
2019-03-31T07:53:34.808Z,4.11
2019-03-31T07:56:06.217Z,4.01
2019-03-31T07:58:37.115Z,3.86
2019-03-31T08:01:08.340Z,3.77
2019-03-31T08:03:39.247Z,3.59
2019-03-31T08:06:10.064Z,3.60
2019-03-31T08:08:41.138Z,3.70
2019-03-31T08:11:12.477Z,3.64
2019-03-31T08:13:43.327Z,3.69
2019-03-31T08:16:14.223Z,3.65
2019-03-31T08:18:45.165Z,3.66
2019-03-31T08:21:17.049Z,3.68
2019-03-31T08:23:47.898Z,3.64
2019-03-31T08:26:18.899Z,3.27
2019-03-31T08:28:49.703Z,2.37
2019-03-31T08:31:20.735Z,2.31
2019-03-31T08:33:51.749Z,2.28
2019-03-31T08:36:22.761Z,2.37
2019-03-31T08:38:53.786Z,2.44
2019-03-31T08:41:24.916Z,2.66
2019-03-31T08:43:56.085Z,2.87
2019-03-31T08:46:27.299Z,2.86
2019-03-31T08:48:58.644Z,3.02
2019-03-31T08:51:29.762Z,3.04
2019-03-31T08:54:01.973Z,3.25
2019-03-31T08:56:32.884Z,3.41
2019-03-31T08:59:04.147Z,3.56
2019-03-31T09:01:35.612Z,3.68
2019-03-31T09:04:07.077Z,3.64
2019-03-31T09:06:38.685Z,3.73
2019-03-31T09:09:10.918Z,3.87
2019-03-31T09:11:42.908Z,3.94
2019-03-31T09:14:14.472Z,3.78
2019-03-31T09:16:45.709Z,3.82
2019-03-31T09:19:18.419Z,3.96
2019-03-31T09:21:49.687Z,4.04
2019-03-31T09:24:20.557Z,4.22
2019-03-31T09:26:51.640Z,4.17
2019-03-31T09:29:22.642Z,4.29
2019-03-31T09:31:53.724Z,4.50
2019-03-31T09:34:24.828Z,4.63
2019-03-31T09:36:55.745Z,4.72
2019-03-31T09:39:26.745Z,4.91
2019-03-31T09:41:58.124Z,4.94
2019-03-31T09:44:30.393Z,5.15
2019-03-31T09:47:01.611Z,5.35
2019-03-31T09:49:32.908Z,5.32
2019-03-31T09:52:04.544Z,5.23
2019-03-31T09:54:36.546Z,5.41
2019-03-31T09:57:07.868Z,5.18
2019-03-31T09:59:38.836Z,5.53
2019-03-31T10:02:10.248Z,5.76
2019-03-31T10:04:41.334Z,5.84
2019-03-31T10:07:12.299Z,5.98
2019-03-31T10:09:44.678Z,6.21
2019-03-31T10:12:15.569Z,6.23
2019-03-31T10:14:46.595Z,6.11
2019-03-31T10:17:17.626Z,6.30
2019-03-31T10:19:51.492Z,6.55
2019-03-31T10:22:24.619Z,6.77
2019-03-31T10:24:56.160Z,6.97
2019-03-31T10:27:27.686Z,7.10
2019-03-31T10:29:58.703Z,6.97
2019-03-31T10:32:29.623Z,6.97
2019-03-31T10:35:00.900Z,7.02
2019-03-31T10:37:31.814Z,7.10
2019-03-31T10:40:03.754Z,7.02
2019-03-31T10:42:35.945Z,7.12
2019-03-31T10:45:08.397Z,7.14
2019-03-31T10:47:39.372Z,7.14
2019-03-31T10:50:11.201Z,7.45
2019-03-31T10:52:42.283Z,7.55
2019-03-31T10:55:15.320Z,7.65
2019-03-31T10:57:46.511Z,7.63
2019-03-31T11:00:20.803Z,7.86
2019-03-31T11:02:51.773Z,7.81
2019-03-31T11:05:22.937Z,7.68
2019-03-31T11:07:53.892Z,7.59
2019-03-31T11:10:25.079Z,7.38
2019-03-31T11:12:56.118Z,7.36
2019-03-31T11:15:27.126Z,7.40
2019-03-31T11:17:58.214Z,7.46
2019-03-31T11:20:29.326Z,7.92
2019-03-31T11:23:05.263Z,8.21
2019-03-31T11:25:36.592Z,8.47
2019-03-31T11:28:07.509Z,8.84
2019-03-31T11:30:38.428Z,9.07
2019-03-31T11:33:09.418Z,8.96
2019-03-31T11:35:40.365Z,8.96
2019-03-31T11:38:11.378Z,9.05
2019-03-31T11:40:42.532Z,9.33
2019-03-31T11:43:13.537Z,9.18
2019-03-31T11:45:44.607Z,9.47
2019-03-31T11:48:15.760Z,9.13
2019-03-31T11:50:48.508Z,8.97
2019-03-31T11:53:19.605Z,8.76
2019-03-31T11:55:51.590Z,8.74
2019-03-31T11:58:23.250Z,8.65
2019-03-31T12:00:56.600Z,8.52
2019-03-31T12:03:30.968Z,8.60
2019-03-31T12:06:00.664Z,8.73
2019-03-31T12:08:31.750Z,8.76
2019-03-31T12:11:03.385Z,8.93
2019-03-31T12:13:34.458Z,8.64
2019-03-31T12:16:05.485Z,8.75
2019-03-31T12:18:36.520Z,8.78
2019-03-31T12:21:07.538Z,8.83
2019-03-31T12:23:38.562Z,8.89
2019-03-31T12:26:09.518Z,9.01
2019-03-31T12:28:40.542Z,9.36
2019-03-31T12:31:11.466Z,9.81
2019-03-31T12:33:42.493Z,10.05
2019-03-31T12:36:13.604Z,9.83
2019-03-31T12:38:44.772Z,9.75
2019-03-31T12:41:15.765Z,9.69
2019-03-31T12:43:47.929Z,9.69
2019-03-31T12:46:19.053Z,9.66
2019-03-31T12:48:50.159Z,9.64
2019-03-31T12:51:22.506Z,9.99
2019-03-31T12:53:53.582Z,10.26
2019-03-31T12:56:24.882Z,10.34
2019-03-31T12:58:55.972Z,10.24
2019-03-31T13:01:26.975Z,10.14
2019-03-31T13:03:57.913Z,10.29
2019-03-31T13:06:28.847Z,10.20
2019-03-31T13:08:59.893Z,10.11
2019-03-31T13:11:31.070Z,10.22
2019-03-31T13:14:02.048Z,10.22
2019-03-31T13:16:33.150Z,9.59
2019-03-31T13:19:04.260Z,9.46
2019-03-31T13:21:35.232Z,9.57
2019-03-31T13:24:06.407Z,9.51
2019-03-31T13:26:37.369Z,9.88
2019-03-31T13:29:08.479Z,9.86
2019-03-31T13:31:39.400Z,10.06
2019-03-31T13:34:10.426Z,9.96
2019-03-31T13:36:41.311Z,9.87
2019-03-31T13:39:12.775Z,9.95
2019-03-31T13:41:47.035Z,9.54
2019-03-31T13:44:16.739Z,9.49
2019-03-31T13:46:48.265Z,9.91
2019-03-31T13:49:19.578Z,10.12
2019-03-31T13:51:51.081Z,10.01
2019-03-31T13:54:22.379Z,9.83
2019-03-31T13:56:54.351Z,9.86
2019-03-31T13:59:26.102Z,9.57
2019-03-31T14:02:00.019Z,9.57
2019-03-31T14:04:30.543Z,9.51
2019-03-31T14:07:04.407Z,9.36
2019-03-31T14:09:34.552Z,9.45
2019-03-31T14:12:07.355Z,9.46
2019-03-31T14:14:38.709Z,9.20
2019-03-31T14:17:10.036Z,9.09
2019-03-31T14:19:41.401Z,8.69
2019-03-31T14:22:13.666Z,8.45
2019-03-31T14:24:47.119Z,8.30
2019-03-31T14:27:18.256Z,8.66
2019-03-31T14:29:49.503Z,8.60
2019-03-31T14:32:20.754Z,8.45
2019-03-31T14:34:52.316Z,8.39
2019-03-31T14:37:23.716Z,8.23
2019-03-31T14:39:54.841Z,8.43
2019-03-31T14:42:26.212Z,8.69
2019-03-31T14:44:57.235Z,8.77
2019-03-31T14:47:28.392Z,8.84
2019-03-31T14:49:59.879Z,9.03
2019-03-31T14:52:31.203Z,9.06
2019-03-31T14:55:02.613Z,9.09
2019-03-31T14:57:33.750Z,8.80
2019-03-31T15:00:14.469Z,8.76
2019-03-31T15:02:38.866Z,8.76
2019-03-31T15:05:10.248Z,8.99
2019-03-31T15:07:41.281Z,8.82
2019-03-31T15:10:12.528Z,8.94
2019-03-31T15:12:44.079Z,8.94
2019-03-31T15:15:15.464Z,9.03
2019-03-31T15:17:46.840Z,9.11
2019-03-31T15:20:19.610Z,9.05
2019-03-31T15:22:51.990Z,9.06
2019-03-31T15:25:23.383Z,9.20
2019-03-31T15:27:55.623Z,9.16
2019-03-31T15:30:27.324Z,9.13
2019-03-31T15:32:58.649Z,9.10
2019-03-31T15:35:29.894Z,9.13
2019-03-31T15:38:01.395Z,8.84
2019-03-31T15:40:32.706Z,8.82
2019-03-31T15:43:04.697Z,8.75
2019-03-31T15:45:36.222Z,8.76
2019-03-31T15:48:07.696Z,8.69
2019-03-31T15:50:39.195Z,8.58
2019-03-31T15:53:10.353Z,8.55
2019-03-31T15:55:41.804Z,8.43
2019-03-31T15:58:13.276Z,8.45
2019-03-31T16:00:44.788Z,8.42
2019-03-31T16:03:18.505Z,8.37
2019-03-31T16:05:51.215Z,8.33
2019-03-31T16:08:21.879Z,8.29
2019-03-31T16:10:52.432Z,8.23
2019-03-31T16:13:24.596Z,8.21
2019-03-31T16:15:55.332Z,8.19
2019-03-31T16:18:25.698Z,8.15
2019-03-31T16:20:57.029Z,8.15
2019-03-31T16:23:28.368Z,8.08
2019-03-31T16:25:59.563Z,8.00
2019-03-31T16:28:30.228Z,7.93
2019-03-31T16:31:01.781Z,7.87
2019-03-31T16:33:32.813Z,7.84
2019-03-31T16:36:03.722Z,7.81
2019-03-31T16:38:34.667Z,7.71
2019-03-31T16:41:05.718Z,7.70
2019-03-31T16:43:36.653Z,7.69
2019-03-31T16:46:08.337Z,7.67
2019-03-31T16:48:38.939Z,7.59
2019-03-31T16:51:09.617Z,7.56
2019-03-31T16:53:40.319Z,7.53
2019-03-31T16:56:11.011Z,7.51
2019-03-31T16:58:42.026Z,7.47
2019-03-31T17:01:12.573Z,7.44
2019-03-31T17:03:44.218Z,7.39
2019-03-31T17:06:15.373Z,7.26
2019-03-31T17:08:46.051Z,7.15
2019-03-31T17:11:18.326Z,7.06
2019-03-31T17:13:50.825Z,7.03
2019-03-31T17:16:24.448Z,6.99
2019-03-31T17:18:55.515Z,6.91
2019-03-31T17:21:26.689Z,6.73
2019-03-31T17:23:57.893Z,6.61
2019-03-31T17:26:28.742Z,6.61
2019-03-31T17:29:02.310Z,6.53
2019-03-31T17:31:33.617Z,6.47
2019-03-31T17:34:04.298Z,6.38
2019-03-31T17:36:36.008Z,6.28
2019-03-31T17:39:08.370Z,6.35
2019-03-31T17:41:38.772Z,6.25
2019-03-31T17:44:09.768Z,6.24
2019-03-31T17:46:40.581Z,6.26
2019-03-31T17:49:11.579Z,6.17
2019-03-31T17:51:42.445Z,6.11
2019-03-31T17:54:13.399Z,6.00
2019-03-31T17:56:44.197Z,5.96
2019-03-31T17:59:15.039Z,5.90
2019-03-31T18:01:46.209Z,5.90
2019-03-31T18:04:17.493Z,5.86
2019-03-31T18:06:50.733Z,5.83
2019-03-31T18:09:22.031Z,5.78
2019-03-31T18:11:53.078Z,5.71
2019-03-31T18:14:24.133Z,5.66
2019-03-31T18:16:54.907Z,5.58
2019-03-31T18:19:25.579Z,5.57
2019-03-31T18:21:57.044Z,5.55
2019-03-31T18:24:28.138Z,5.52
2019-03-31T18:26:59.604Z,4.71
2019-03-31T18:29:30.252Z,5.46
2019-03-31T18:32:01.243Z,5.46
2019-03-31T18:34:32.216Z,5.43
2019-03-31T18:37:02.882Z,5.32
2019-03-31T18:39:33.459Z,5.28
2019-03-31T18:42:04.611Z,5.24
2019-03-31T18:44:35.409Z,5.21
2019-03-31T18:47:06.103Z,5.20
2019-03-31T18:49:36.852Z,5.16
2019-03-31T18:52:07.966Z,5.12
2019-03-31T18:54:46.998Z,5.10
2019-03-31T18:57:25.240Z,5.04
2019-03-31T19:00:24.129Z,5.01
2019-03-31T19:03:12.847Z,4.99
2019-03-31T19:06:03.037Z,4.97
2019-03-31T19:08:46.233Z,4.88
2019-03-31T19:11:32.563Z,4.82
2019-03-31T19:14:31.917Z,4.78
2019-03-31T19:17:21.363Z,4.72
2019-03-31T19:20:15.818Z,4.66
2019-03-31T19:23:12.072Z,4.61
2019-03-31T19:25:55.063Z,4.57
2019-03-31T19:28:59.908Z,4.49
2019-03-31T19:32:04.438Z,4.43
2019-03-31T19:34:56.819Z,4.35
2019-03-31T19:37:42.869Z,4.30
2019-03-31T19:40:29.642Z,4.26
2019-03-31T19:43:22.525Z,4.22
2019-03-31T19:46:34.562Z,4.15
2019-03-31T19:49:36.973Z,4.09
2019-03-31T19:52:42.939Z,4.02
2019-03-31T19:55:24.858Z,4.00
2019-03-31T19:58:31.329Z,3.98
2019-03-31T20:01:25.265Z,4.00
2019-03-31T20:04:33.805Z,4.00
2019-03-31T20:07:25.396Z,4.00
2019-03-31T20:10:19.309Z,3.90
2019-03-31T20:13:18.562Z,3.88
2019-03-31T20:16:26.552Z,3.86
2019-03-31T20:19:18.969Z,3.84
2019-03-31T20:22:05.341Z,3.78
2019-03-31T20:25:03.381Z,3.74
2019-03-31T20:28:09.829Z,3.72
2019-03-31T20:31:01.874Z,3.69
2019-03-31T20:33:59.081Z,3.62
2019-03-31T20:36:51.261Z,3.55
2019-03-31T20:39:39.014Z,3.47
2019-03-31T20:42:25.911Z,3.40
2019-03-31T20:44:57.297Z,3.33
2019-03-31T20:47:28.041Z,3.27
2019-03-31T20:49:59.277Z,3.23
2019-03-31T20:52:30.317Z,3.20
2019-03-31T20:55:15.593Z,3.14
2019-03-31T20:57:35.747Z,3.09
2019-03-31T21:00:07.752Z,3.03
2019-03-31T21:02:38.743Z,3.02
2019-03-31T21:05:09.863Z,3.01
2019-03-31T21:07:40.412Z,3.00
2019-03-31T21:10:12.697Z,2.98
2019-03-31T21:12:43.277Z,2.98
2019-03-31T21:15:14.463Z,2.98
2019-03-31T21:17:45.439Z,2.97
2019-03-31T21:20:16.491Z,2.93
2019-03-31T21:22:47.143Z,2.94
2019-03-31T21:25:18.023Z,2.92
2019-03-31T21:27:48.669Z,2.88
2019-03-31T21:30:19.674Z,2.86
2019-03-31T21:32:50.396Z,2.82
2019-03-31T21:35:21.183Z,2.84
2019-03-31T21:37:52.195Z,2.84
2019-03-31T21:40:22.936Z,2.76
2019-03-31T21:42:53.745Z,2.78
2019-03-31T21:45:24.643Z,2.76
2019-03-31T21:47:55.498Z,2.74
2019-03-31T21:50:26.613Z,2.67
2019-03-31T21:52:57.568Z,2.64
2019-03-31T21:55:29.272Z,2.61
2019-03-31T21:58:00.194Z,2.60
2019-03-31T22:00:50.962Z,2.54
2019-03-31T22:03:24.544Z,2.54
2019-03-31T22:05:55.342Z,2.52
2019-03-31T22:08:26.286Z,2.48
2019-03-31T22:10:57.051Z,2.48
2019-03-31T22:13:28.083Z,2.48
2019-03-31T22:15:58.948Z,2.44
2019-03-31T22:18:29.829Z,2.49
2019-03-31T22:21:00.460Z,2.48
2019-03-31T22:23:31.154Z,2.48
2019-03-31T22:26:02.080Z,2.50
2019-03-31T22:28:33.085Z,2.49
2019-03-31T22:31:03.838Z,2.53
2019-03-31T22:33:34.560Z,2.54
2019-03-31T22:36:24.029Z,2.56
2019-03-31T22:38:55.358Z,2.54
2019-03-31T22:41:26.228Z,2.53
2019-03-31T22:43:56.963Z,2.52
2019-03-31T22:46:28.776Z,2.50
2019-03-31T22:48:59.466Z,2.55
2019-03-31T22:51:30.159Z,2.50
2019-03-31T22:54:00.946Z,2.50
2019-03-31T22:56:31.785Z,2.48
2019-03-31T22:59:02.537Z,2.52
2019-03-31T23:01:33.478Z,2.52
2019-03-31T23:04:04.263Z,2.47
2019-03-31T23:06:35.104Z,2.48
2019-03-31T23:09:07.080Z,2.47
2019-03-31T23:11:37.946Z,2.45
2019-03-31T23:14:08.673Z,2.45
2019-03-31T23:16:39.351Z,2.41
2019-03-31T23:19:10.206Z,2.43
2019-03-31T23:21:41.321Z,2.41
2019-03-31T23:24:12.009Z,2.30
2019-03-31T23:26:42.989Z,2.28
2019-03-31T23:29:13.811Z,2.32
2019-03-31T23:31:44.641Z,2.26
2019-03-31T23:34:15.249Z,2.24
2019-03-31T23:36:46.154Z,2.20
2019-03-31T23:39:16.947Z,2.14
2019-03-31T23:41:47.793Z,2.12
2019-03-31T23:44:18.682Z,2.13
2019-03-31T23:46:49.542Z,2.14
2019-03-31T23:49:20.232Z,2.13
2019-03-31T23:51:51.015Z,2.13
2019-03-31T23:54:21.708Z,2.15
2019-03-31T23:56:52.846Z,2.12
2019-03-31T23:59:23.652Z,2.13
